sensor_id;sensor_type;location;lat;lon;timestamp;temperature;humidity
71177;DHT22;58877;51.992;4.504;2023-03-16T00:00:27;7.46;63.38
71177;DHT22;58877;51.992;4.504;2023-03-16T00:02:53;7.50;63.24
71177;DHT22;58877;51.992;4.504;2023-03-16T00:05:19;7.47;63.38
71177;DHT22;58877;51.992;4.504;2023-03-16T00:07:44;7.41;63.82
71177;DHT22;58877;51.992;4.504;2023-03-16T00:10:13;7.41;63.87
71177;DHT22;58877;51.992;4.504;2023-03-16T00:12:39;7.37;64.23
71177;DHT22;58877;51.992;4.504;2023-03-16T00:15:08;7.37;64.39
71177;DHT22;58877;51.992;4.504;2023-03-16T00:17:34;7.34;64.24
71177;DHT22;58877;51.992;4.504;2023-03-16T00:20:00;7.37;64.35
71177;DHT22;58877;51.992;4.504;2023-03-16T00:22:34;7.32;64.59
71177;DHT22;58877;51.992;4.504;2023-03-16T00:25:00;7.38;64.70
71177;DHT22;58877;51.992;4.504;2023-03-16T00:27:26;7.37;64.64
71177;DHT22;58877;51.992;4.504;2023-03-16T00:29:53;7.37;64.70
71177;DHT22;58877;51.992;4.504;2023-03-16T00:32:27;7.41;64.72
71177;DHT22;58877;51.992;4.504;2023-03-16T00:34:53;7.38;64.91
71177;DHT22;58877;51.992;4.504;2023-03-16T00:37:21;7.40;65.04
71177;DHT22;58877;51.992;4.504;2023-03-16T00:39:48;7.41;65.34
71177;DHT22;58877;51.992;4.504;2023-03-16T00:42:16;7.44;65.44
71177;DHT22;58877;51.992;4.504;2023-03-16T00:44:44;7.46;65.52
71177;DHT22;58877;51.992;4.504;2023-03-16T00:47:11;7.47;65.54
71177;DHT22;58877;51.992;4.504;2023-03-16T00:49:42;7.43;65.85
71177;DHT22;58877;51.992;4.504;2023-03-16T00:52:12;7.44;66.04
71177;DHT22;58877;51.992;4.504;2023-03-16T00:54:45;7.35;66.26
71177;DHT22;58877;51.992;4.504;2023-03-16T00:57:16;7.41;66.22
71177;DHT22;58877;51.992;4.504;2023-03-16T00:59:47;7.48;66.18
71177;DHT22;58877;51.992;4.504;2023-03-16T01:02:15;7.41;66.51
71177;DHT22;58877;51.992;4.504;2023-03-16T01:04:42;7.37;66.81
71177;DHT22;58877;51.992;4.504;2023-03-16T01:07:10;7.34;67.11
71177;DHT22;58877;51.992;4.504;2023-03-16T01:09:38;7.37;67.03
71177;DHT22;58877;51.992;4.504;2023-03-16T01:12:12;7.40;67.09
71177;DHT22;58877;51.992;4.504;2023-03-16T01:14:38;7.44;67.18
71177;DHT22;58877;51.992;4.504;2023-03-16T01:17:06;7.40;67.29
71177;DHT22;58877;51.992;4.504;2023-03-16T01:19:34;7.47;67.44
71177;DHT22;58877;51.992;4.504;2023-03-16T01:22:01;7.51;67.66
71177;DHT22;58877;51.992;4.504;2023-03-16T01:24:28;7.60;67.65
71177;DHT22;58877;51.992;4.504;2023-03-16T01:26:54;7.57;67.78
71177;DHT22;58877;51.992;4.504;2023-03-16T01:29:20;7.58;67.92
71177;DHT22;58877;51.992;4.504;2023-03-16T01:31:46;7.58;68.06
71177;DHT22;58877;51.992;4.504;2023-03-16T01:34:15;7.60;67.99
71177;DHT22;58877;51.992;4.504;2023-03-16T01:36:45;7.61;68.05
71177;DHT22;58877;51.992;4.504;2023-03-16T01:39:12;7.58;68.32
71177;DHT22;58877;51.992;4.504;2023-03-16T01:44:26;7.58;68.55
71177;DHT22;58877;51.992;4.504;2023-03-16T01:46:55;7.47;68.72
71177;DHT22;58877;51.992;4.504;2023-03-16T01:49:30;7.48;69.07
71177;DHT22;58877;51.992;4.504;2023-03-16T01:52:05;7.54;68.93
71177;DHT22;58877;51.992;4.504;2023-03-16T01:54:42;7.60;69.10
71177;DHT22;58877;51.992;4.504;2023-03-16T01:57:33;7.64;69.07
71177;DHT22;58877;51.992;4.504;2023-03-16T02:00:13;7.71;68.84
71177;DHT22;58877;51.992;4.504;2023-03-16T02:02:54;7.58;69.40
71177;DHT22;58877;51.992;4.504;2023-03-16T02:05:43;7.62;69.59
71177;DHT22;58877;51.992;4.504;2023-03-16T02:08:10;7.65;69.97
71177;DHT22;58877;51.992;4.504;2023-03-16T02:10:37;7.67;70.12
71177;DHT22;58877;51.992;4.504;2023-03-16T02:13:04;7.72;70.58
71177;DHT22;58877;51.992;4.504;2023-03-16T02:15:30;7.65;70.76
71177;DHT22;58877;51.992;4.504;2023-03-16T02:17:57;7.72;70.99
71177;DHT22;58877;51.992;4.504;2023-03-16T02:23:17;7.61;71.84
71177;DHT22;58877;51.992;4.504;2023-03-16T02:28:59;7.51;72.72
71177;DHT22;58877;51.992;4.504;2023-03-16T02:31:27;7.48;72.85
71177;DHT22;58877;51.992;4.504;2023-03-16T02:33:55;7.54;73.15
71177;DHT22;58877;51.992;4.504;2023-03-16T02:36:21;7.62;73.04
71177;DHT22;58877;51.992;4.504;2023-03-16T02:38:47;7.65;73.04
71177;DHT22;58877;51.992;4.504;2023-03-16T02:41:18;7.67;72.99
71177;DHT22;58877;51.992;4.504;2023-03-16T02:43:54;7.62;73.46
71177;DHT22;58877;51.992;4.504;2023-03-16T02:46:25;7.57;73.60
71177;DHT22;58877;51.992;4.504;2023-03-16T02:49:15;7.54;74.01
71177;DHT22;58877;51.992;4.504;2023-03-16T02:51:45;7.55;74.19
71177;DHT22;58877;51.992;4.504;2023-03-16T02:54:11;7.57;74.31
71177;DHT22;58877;51.992;4.504;2023-03-16T02:56:41;7.61;74.33
71177;DHT22;58877;51.992;4.504;2023-03-16T02:59:08;7.55;74.59
71177;DHT22;58877;51.992;4.504;2023-03-16T03:01:34;7.50;74.86
71177;DHT22;58877;51.992;4.504;2023-03-16T03:04:02;7.52;74.96
71177;DHT22;58877;51.992;4.504;2023-03-16T03:06:28;7.50;75.21
71177;DHT22;58877;51.992;4.504;2023-03-16T03:08:53;7.46;75.62
71177;DHT22;58877;51.992;4.504;2023-03-16T03:11:19;7.43;75.81
71177;DHT22;58877;51.992;4.504;2023-03-16T03:13:46;7.43;76.08
71177;DHT22;58877;51.992;4.504;2023-03-16T03:16:12;7.43;75.88
71177;DHT22;58877;51.992;4.504;2023-03-16T03:18:38;7.48;75.96
71177;DHT22;58877;51.992;4.504;2023-03-16T03:21:04;7.47;75.87
71177;DHT22;58877;51.992;4.504;2023-03-16T03:23:30;7.38;76.05
71177;DHT22;58877;51.992;4.504;2023-03-16T03:25:59;7.32;76.40
71177;DHT22;58877;51.992;4.504;2023-03-16T03:28:25;7.38;76.37
71177;DHT22;58877;51.992;4.504;2023-03-16T03:30:51;7.41;76.44
71177;DHT22;58877;51.992;4.504;2023-03-16T03:33:18;7.40;76.40
71177;DHT22;58877;51.992;4.504;2023-03-16T03:35:44;7.35;76.42
71177;DHT22;58877;51.992;4.504;2023-03-16T03:38:09;7.37;76.49
71177;DHT22;58877;51.992;4.504;2023-03-16T03:40:36;7.30;76.43
71177;DHT22;58877;51.992;4.504;2023-03-16T03:43:03;7.28;76.55
71177;DHT22;58877;51.992;4.504;2023-03-16T03:45:29;7.31;76.55
71177;DHT22;58877;51.992;4.504;2023-03-16T03:47:55;7.30;76.62
71177;DHT22;58877;51.992;4.504;2023-03-16T03:50:21;7.24;76.44
71177;DHT22;58877;51.992;4.504;2023-03-16T03:52:46;7.27;76.58
71177;DHT22;58877;51.992;4.504;2023-03-16T03:55:12;7.20;76.46
71177;DHT22;58877;51.992;4.504;2023-03-16T03:57:38;7.21;76.51
71177;DHT22;58877;51.992;4.504;2023-03-16T04:00:06;7.27;76.52
71177;DHT22;58877;51.992;4.504;2023-03-16T04:02:38;7.31;76.47
71177;DHT22;58877;51.992;4.504;2023-03-16T04:05:05;7.35;76.40
71177;DHT22;58877;51.992;4.504;2023-03-16T04:07:31;7.35;76.12
71177;DHT22;58877;51.992;4.504;2023-03-16T04:09:56;7.43;76.31
71177;DHT22;58877;51.992;4.504;2023-03-16T04:12:22;7.37;76.22
71177;DHT22;58877;51.992;4.504;2023-03-16T04:14:48;7.37;76.56
71177;DHT22;58877;51.992;4.504;2023-03-16T04:17:14;7.31;76.76
71177;DHT22;58877;51.992;4.504;2023-03-16T04:19:39;7.35;76.81
71177;DHT22;58877;51.992;4.504;2023-03-16T04:22:06;7.38;76.63
71177;DHT22;58877;51.992;4.504;2023-03-16T04:24:32;7.43;76.84
71177;DHT22;58877;51.992;4.504;2023-03-16T04:26:59;7.41;76.99
71177;DHT22;58877;51.992;4.504;2023-03-16T04:29:27;7.43;76.98
71177;DHT22;58877;51.992;4.504;2023-03-16T04:31:53;7.38;77.10
71177;DHT22;58877;51.992;4.504;2023-03-16T04:34:20;7.35;77.31
71177;DHT22;58877;51.992;4.504;2023-03-16T04:36:50;7.34;77.81
71177;DHT22;58877;51.992;4.504;2023-03-16T04:39:17;7.31;78.13
71177;DHT22;58877;51.992;4.504;2023-03-16T04:41:43;7.35;78.17
71177;DHT22;58877;51.992;4.504;2023-03-16T04:44:08;7.35;78.42
71177;DHT22;58877;51.992;4.504;2023-03-16T04:46:34;7.34;78.53
71177;DHT22;58877;51.992;4.504;2023-03-16T04:49:00;7.30;78.75
71177;DHT22;58877;51.992;4.504;2023-03-16T04:51:27;7.32;78.96
71177;DHT22;58877;51.992;4.504;2023-03-16T04:53:53;7.30;79.15
71177;DHT22;58877;51.992;4.504;2023-03-16T04:56:20;7.31;79.35
71177;DHT22;58877;51.992;4.504;2023-03-16T04:58:47;7.27;79.39
71177;DHT22;58877;51.992;4.504;2023-03-16T05:01:14;7.21;79.79
71177;DHT22;58877;51.992;4.504;2023-03-16T05:03:42;7.24;80.00
71177;DHT22;58877;51.992;4.504;2023-03-16T05:06:09;7.21;80.13
71177;DHT22;58877;51.992;4.504;2023-03-16T05:08:36;7.24;80.10
71177;DHT22;58877;51.992;4.504;2023-03-16T05:11:02;7.18;80.22
71177;DHT22;58877;51.992;4.504;2023-03-16T05:13:28;7.13;80.55
71177;DHT22;58877;51.992;4.504;2023-03-16T05:15:53;7.10;80.96
71177;DHT22;58877;51.992;4.504;2023-03-16T05:18:20;7.10;81.07
71177;DHT22;58877;51.992;4.504;2023-03-16T05:20:49;7.04;81.43
71177;DHT22;58877;51.992;4.504;2023-03-16T05:23:16;6.96;81.83
71177;DHT22;58877;51.992;4.504;2023-03-16T05:25:41;7.03;81.77
71177;DHT22;58877;51.992;4.504;2023-03-16T05:28:07;6.99;81.94
71177;DHT22;58877;51.992;4.504;2023-03-16T05:30:33;6.97;82.07
71177;DHT22;58877;51.992;4.504;2023-03-16T05:32:58;6.92;82.14
71177;DHT22;58877;51.992;4.504;2023-03-16T05:35:24;6.92;82.16
71177;DHT22;58877;51.992;4.504;2023-03-16T05:37:50;6.82;82.40
71177;DHT22;58877;51.992;4.504;2023-03-16T05:40:16;6.85;82.44
71177;DHT22;58877;51.992;4.504;2023-03-16T05:42:46;6.92;82.34
71177;DHT22;58877;51.992;4.504;2023-03-16T05:45:17;6.87;82.31
71177;DHT22;58877;51.992;4.504;2023-03-16T05:47:42;6.85;82.46
71177;DHT22;58877;51.992;4.504;2023-03-16T05:50:10;6.86;82.50
71177;DHT22;58877;51.992;4.504;2023-03-16T05:52:38;6.90;82.48
71177;DHT22;58877;51.992;4.504;2023-03-16T05:55:06;6.89;82.46
71177;DHT22;58877;51.992;4.504;2023-03-16T05:57:32;6.90;82.50
71177;DHT22;58877;51.992;4.504;2023-03-16T05:59:59;6.89;82.48
71177;DHT22;58877;51.992;4.504;2023-03-16T06:02:27;6.82;82.53
71177;DHT22;58877;51.992;4.504;2023-03-16T06:04:53;6.83;82.60
71177;DHT22;58877;51.992;4.504;2023-03-16T06:07:19;6.86;82.60
71177;DHT22;58877;51.992;4.504;2023-03-16T06:09:45;6.83;82.70
71177;DHT22;58877;51.992;4.504;2023-03-16T06:12:11;6.79;82.83
71177;DHT22;58877;51.992;4.504;2023-03-16T06:14:36;6.83;82.71
71177;DHT22;58877;51.992;4.504;2023-03-16T06:17:02;6.82;82.49
71177;DHT22;58877;51.992;4.504;2023-03-16T06:19:27;6.75;82.67
71177;DHT22;58877;51.992;4.504;2023-03-16T06:21:53;6.76;82.73
71177;DHT22;58877;51.992;4.504;2023-03-16T06:24:18;6.77;82.77
71177;DHT22;58877;51.992;4.504;2023-03-16T06:26:44;6.76;82.60
71177;DHT22;58877;51.992;4.504;2023-03-16T06:29:09;6.82;82.63
71177;DHT22;58877;51.992;4.504;2023-03-16T06:31:36;6.77;82.58
71177;DHT22;58877;51.992;4.504;2023-03-16T06:34:01;6.76;82.81
71177;DHT22;58877;51.992;4.504;2023-03-16T06:36:27;6.80;82.79
71177;DHT22;58877;51.992;4.504;2023-03-16T06:38:53;6.85;82.62
71177;DHT22;58877;51.992;4.504;2023-03-16T06:41:18;6.77;82.62
71177;DHT22;58877;51.992;4.504;2023-03-16T06:43:44;6.83;82.71
71177;DHT22;58877;51.992;4.504;2023-03-16T06:46:09;6.89;82.65
71177;DHT22;58877;51.992;4.504;2023-03-16T06:48:35;6.87;82.32
71177;DHT22;58877;51.992;4.504;2023-03-16T06:51:01;6.86;82.35
71177;DHT22;58877;51.992;4.504;2023-03-16T06:53:27;6.85;82.43
71177;DHT22;58877;51.992;4.504;2023-03-16T06:55:52;6.89;82.37
71177;DHT22;58877;51.992;4.504;2023-03-16T06:58:18;6.96;82.25
71177;DHT22;58877;51.992;4.504;2023-03-16T07:00:44;6.97;82.07
71177;DHT22;58877;51.992;4.504;2023-03-16T07:03:10;6.92;81.68
71177;DHT22;58877;51.992;4.504;2023-03-16T07:05:36;6.95;81.54
71177;DHT22;58877;51.992;4.504;2023-03-16T07:08:01;7.01;81.55
71177;DHT22;58877;51.992;4.504;2023-03-16T07:10:28;7.00;81.37
71177;DHT22;58877;51.992;4.504;2023-03-16T07:12:54;7.01;80.99
71177;DHT22;58877;51.992;4.504;2023-03-16T07:15:19;7.11;81.01
71177;DHT22;58877;51.992;4.504;2023-03-16T07:17:46;7.18;80.85
71177;DHT22;58877;51.992;4.504;2023-03-16T07:20:12;7.18;80.45
71177;DHT22;58877;51.992;4.504;2023-03-16T07:22:39;7.23;80.20
71177;DHT22;58877;51.992;4.504;2023-03-16T07:25:06;7.30;79.94
71177;DHT22;58877;51.992;4.504;2023-03-16T07:27:32;7.41;79.88
71177;DHT22;58877;51.992;4.504;2023-03-16T07:29:58;7.54;79.14
71177;DHT22;58877;51.992;4.504;2023-03-16T07:32:24;7.62;78.68
71177;DHT22;58877;51.992;4.504;2023-03-16T07:34:50;7.71;78.06
71177;DHT22;58877;51.992;4.504;2023-03-16T07:37:16;7.74;77.59
71177;DHT22;58877;51.992;4.504;2023-03-16T07:39:41;7.74;76.99
71177;DHT22;58877;51.992;4.504;2023-03-16T07:42:08;7.72;77.17
71177;DHT22;58877;51.992;4.504;2023-03-16T07:44:34;7.77;76.92
71177;DHT22;58877;51.992;4.504;2023-03-16T07:47:00;7.75;76.52
71177;DHT22;58877;51.992;4.504;2023-03-16T07:49:26;7.81;76.52
71177;DHT22;58877;51.992;4.504;2023-03-16T07:51:52;7.84;76.20
71177;DHT22;58877;51.992;4.504;2023-03-16T07:54:18;7.92;75.97
71177;DHT22;58877;51.992;4.504;2023-03-16T07:56:43;7.96;75.69
71177;DHT22;58877;51.992;4.504;2023-03-16T07:59:09;8.03;75.29
71177;DHT22;58877;51.992;4.504;2023-03-16T08:01:36;8.06;75.09
71177;DHT22;58877;51.992;4.504;2023-03-16T08:04:02;8.12;75.01
71177;DHT22;58877;51.992;4.504;2023-03-16T08:06:28;8.10;74.50
71177;DHT22;58877;51.992;4.504;2023-03-16T08:08:53;8.21;74.12
71177;DHT22;58877;51.992;4.504;2023-03-16T08:11:19;8.28;74.02
71177;DHT22;58877;51.992;4.504;2023-03-16T08:13:51;8.29;73.74
71177;DHT22;58877;51.992;4.504;2023-03-16T08:16:25;8.32;73.44
71177;DHT22;58877;51.992;4.504;2023-03-16T08:18:51;8.39;73.27
71177;DHT22;58877;51.992;4.504;2023-03-16T08:21:18;8.39;72.81
71177;DHT22;58877;51.992;4.504;2023-03-16T08:23:44;8.43;72.43
71177;DHT22;58877;51.992;4.504;2023-03-16T08:26:21;8.49;72.50
71177;DHT22;58877;51.992;4.504;2023-03-16T08:28:50;8.50;72.12
71177;DHT22;58877;51.992;4.504;2023-03-16T08:31:16;8.59;71.84
71177;DHT22;58877;51.992;4.504;2023-03-16T08:33:44;8.64;71.60
71177;DHT22;58877;51.992;4.504;2023-03-16T08:36:13;8.83;71.12
71177;DHT22;58877;51.992;4.504;2023-03-16T08:38:40;8.94;70.68
71177;DHT22;58877;51.992;4.504;2023-03-16T08:41:07;8.97;70.00
71177;DHT22;58877;51.992;4.504;2023-03-16T08:43:34;9.03;69.65
71177;DHT22;58877;51.992;4.504;2023-03-16T08:46:02;9.12;69.25
71177;DHT22;58877;51.992;4.504;2023-03-16T08:48:30;9.08;69.42
71177;DHT22;58877;51.992;4.504;2023-03-16T08:51:01;9.25;69.27
71177;DHT22;58877;51.992;4.504;2023-03-16T08:53:28;9.46;68.62
71177;DHT22;58877;51.992;4.504;2023-03-16T08:56:05;9.62;68.30
71177;DHT22;58877;51.992;4.504;2023-03-16T08:58:33;9.65;67.87
71177;DHT22;58877;51.992;4.504;2023-03-16T09:01:00;9.65;68.05
71177;DHT22;58877;51.992;4.504;2023-03-16T09:03:26;9.62;67.22
71177;DHT22;58877;51.992;4.504;2023-03-16T09:05:53;9.72;67.58
71177;DHT22;58877;51.992;4.504;2023-03-16T09:08:24;9.82;66.78
71177;DHT22;58877;51.992;4.504;2023-03-16T09:10:58;9.92;66.80
71177;DHT22;58877;51.992;4.504;2023-03-16T09:13:24;10.14;66.11
71177;DHT22;58877;51.992;4.504;2023-03-16T09:15:53;10.20;65.32
71177;DHT22;58877;51.992;4.504;2023-03-16T09:18:19;10.33;65.40
71177;DHT22;58877;51.992;4.504;2023-03-16T09:20:45;10.33;64.46
71177;DHT22;58877;51.992;4.504;2023-03-16T09:23:12;10.32;64.33
71177;DHT22;58877;51.992;4.504;2023-03-16T09:25:39;10.39;64.22
71177;DHT22;58877;51.992;4.504;2023-03-16T09:28:05;10.37;64.49
71177;DHT22;58877;51.992;4.504;2023-03-16T09:30:31;10.53;63.86
71177;DHT22;58877;51.992;4.504;2023-03-16T09:33:00;10.57;63.33
71177;DHT22;58877;51.992;4.504;2023-03-16T09:35:29;10.57;63.29
71177;DHT22;58877;51.992;4.504;2023-03-16T09:37:55;10.68;62.64
71177;DHT22;58877;51.992;4.504;2023-03-16T09:40:24;10.85;62.30
71177;DHT22;58877;51.992;4.504;2023-03-16T09:45:34;11.00;61.57
71177;DHT22;58877;51.992;4.504;2023-03-16T09:48:04;11.18;61.60
71177;DHT22;58877;51.992;4.504;2023-03-16T09:50:36;11.31;60.11
71177;DHT22;58877;51.992;4.504;2023-03-16T09:53:23;11.31;60.37
71177;DHT22;58877;51.992;4.504;2023-03-16T09:55:59;11.39;60.05
71177;DHT22;58877;51.992;4.504;2023-03-16T09:58:26;11.54;59.91
71177;DHT22;58877;51.992;4.504;2023-03-16T10:01:01;11.67;58.70
71177;DHT22;58877;51.992;4.504;2023-03-16T10:06:15;11.77;58.66
71177;DHT22;58877;51.992;4.504;2023-03-16T10:09:00;11.99;58.77
71177;DHT22;58877;51.992;4.504;2023-03-16T10:16:48;12.14;56.78
71177;DHT22;58877;51.992;4.504;2023-03-16T10:21:49;12.43;56.21
71177;DHT22;58877;51.992;4.504;2023-03-16T10:27:18;12.40;55.79
71177;DHT22;58877;51.992;4.504;2023-03-16T10:29:46;12.50;55.87
71177;DHT22;58877;51.992;4.504;2023-03-16T10:32:15;12.60;55.07
71177;DHT22;58877;51.992;4.504;2023-03-16T10:35:28;12.73;54.85
71177;DHT22;58877;51.992;4.504;2023-03-16T10:37:52;12.83;54.77
71177;DHT22;58877;51.992;4.504;2023-03-16T10:40:18;12.84;54.78
71177;DHT22;58877;51.992;4.504;2023-03-16T10:42:48;12.84;54.48
71177;DHT22;58877;51.992;4.504;2023-03-16T10:45:28;12.94;54.80
71177;DHT22;58877;51.992;4.504;2023-03-16T10:48:29;13.01;55.07
71177;DHT22;58877;51.992;4.504;2023-03-16T10:51:02;12.87;53.11
71177;DHT22;58877;51.992;4.504;2023-03-16T10:53:35;12.96;54.08
71177;DHT22;58877;51.992;4.504;2023-03-16T10:56:20;13.06;54.63
71177;DHT22;58877;51.992;4.504;2023-03-16T10:58:47;13.26;53.84
71177;DHT22;58877;51.992;4.504;2023-03-16T11:01:23;13.32;54.16
71177;DHT22;58877;51.992;4.504;2023-03-16T11:03:53;13.39;53.59
71177;DHT22;58877;51.992;4.504;2023-03-16T11:06:24;13.26;52.88
71177;DHT22;58877;51.992;4.504;2023-03-16T11:09:12;13.29;53.50
71177;DHT22;58877;51.992;4.504;2023-03-16T11:11:39;13.16;53.54
71177;DHT22;58877;51.992;4.504;2023-03-16T11:14:12;13.18;53.25
71177;DHT22;58877;51.992;4.504;2023-03-16T11:16:58;13.26;53.26
71177;DHT22;58877;51.992;4.504;2023-03-16T11:22:14;13.43;53.94
71177;DHT22;58877;51.992;4.504;2023-03-16T11:27:50;13.62;51.90
71177;DHT22;58877;51.992;4.504;2023-03-16T11:32:52;13.62;52.43
71177;DHT22;58877;51.992;4.504;2023-03-16T11:38:35;13.89;51.20
71177;DHT22;58877;51.992;4.504;2023-03-16T11:41:10;14.06;50.73
71177;DHT22;58877;51.992;4.504;2023-03-16T11:46:33;14.31;50.68
71177;DHT22;58877;51.992;4.504;2023-03-16T12:02:42;14.64;48.67
71177;DHT22;58877;51.992;4.504;2023-03-16T12:08:32;14.48;47.19
71177;DHT22;58877;51.992;4.504;2023-03-16T12:11:26;14.44;46.42
71177;DHT22;58877;51.992;4.504;2023-03-16T12:17:02;14.63;45.51
71177;DHT22;58877;51.992;4.504;2023-03-16T12:24:56;14.85;44.88
71177;DHT22;58877;51.992;4.504;2023-03-16T12:27:26;14.86;44.23
71177;DHT22;58877;51.992;4.504;2023-03-16T12:44:16;15.43;43.96
71177;DHT22;58877;51.992;4.504;2023-03-16T12:49:18;15.32;43.17
71177;DHT22;58877;51.992;4.504;2023-03-16T12:51:45;15.29;43.55
71177;DHT22;58877;51.992;4.504;2023-03-16T12:54:24;15.12;43.08
71177;DHT22;58877;51.992;4.504;2023-03-16T12:56:59;15.26;42.78
71177;DHT22;58877;51.992;4.504;2023-03-16T12:59:42;15.54;43.05
71177;DHT22;58877;51.992;4.504;2023-03-16T13:02:30;15.49;41.99
71177;DHT22;58877;51.992;4.504;2023-03-16T13:05:07;15.54;43.35
71177;DHT22;58877;51.992;4.504;2023-03-16T13:07:44;15.70;42.68
71177;DHT22;58877;51.992;4.504;2023-03-16T13:10:14;15.91;42.65
71177;DHT22;58877;51.992;4.504;2023-03-16T13:12:42;15.80;42.52
71177;DHT22;58877;51.992;4.504;2023-03-16T13:20:49;16.14;41.27
71177;DHT22;58877;51.992;4.504;2023-03-16T13:28:37;15.91;41.47
71177;DHT22;58877;51.992;4.504;2023-03-16T13:31:05;15.96;42.14
71177;DHT22;58877;51.992;4.504;2023-03-16T13:33:46;15.80;41.76
71177;DHT22;58877;51.992;4.504;2023-03-16T13:36:13;15.76;40.73
71177;DHT22;58877;51.992;4.504;2023-03-16T13:38:39;15.87;40.73
71177;DHT22;58877;51.992;4.504;2023-03-16T13:41:10;15.89;41.37
71177;DHT22;58877;51.992;4.504;2023-03-16T13:43:42;15.97;39.97
71177;DHT22;58877;51.992;4.504;2023-03-16T13:46:15;15.93;39.20
71177;DHT22;58877;51.992;4.504;2023-03-16T13:48:42;16.07;40.34
71177;DHT22;58877;51.992;4.504;2023-03-16T13:51:17;16.25;38.72
71177;DHT22;58877;51.992;4.504;2023-03-16T13:53:47;16.24;38.95
71177;DHT22;58877;51.992;4.504;2023-03-16T13:56:25;16.29;39.04
71177;DHT22;58877;51.992;4.504;2023-03-16T13:58:56;16.15;38.42
71177;DHT22;58877;51.992;4.504;2023-03-16T14:01:28;16.04;38.33
71177;DHT22;58877;51.992;4.504;2023-03-16T14:03:59;16.08;39.15
71177;DHT22;58877;51.992;4.504;2023-03-16T14:06:30;16.38;39.28
71177;DHT22;58877;51.992;4.504;2023-03-16T14:09:03;16.49;39.31
71177;DHT22;58877;51.992;4.504;2023-03-16T14:11:29;16.47;38.67
71177;DHT22;58877;51.992;4.504;2023-03-16T14:13:57;16.37;38.42
71177;DHT22;58877;51.992;4.504;2023-03-16T14:16:28;16.38;39.20
71177;DHT22;58877;51.992;4.504;2023-03-16T14:19:16;16.27;39.04
71177;DHT22;58877;51.992;4.504;2023-03-16T14:21:45;16.07;38.41
71177;DHT22;58877;51.992;4.504;2023-03-16T14:24:29;16.25;38.74
71177;DHT22;58877;51.992;4.504;2023-03-16T14:26:56;16.20;38.40
71177;DHT22;58877;51.992;4.504;2023-03-16T14:29:26;16.32;39.26
71177;DHT22;58877;51.992;4.504;2023-03-16T14:31:53;16.29;38.50
71177;DHT22;58877;51.992;4.504;2023-03-16T14:36:52;16.29;38.54
71177;DHT22;58877;51.992;4.504;2023-03-16T14:39:20;16.55;37.68
71177;DHT22;58877;51.992;4.504;2023-03-16T14:41:51;16.66;38.45
71177;DHT22;58877;51.992;4.504;2023-03-16T14:44:22;16.95;37.66
71177;DHT22;58877;51.992;4.504;2023-03-16T14:46:49;16.92;37.13
71177;DHT22;58877;51.992;4.504;2023-03-16T14:49:21;16.76;37.30
71177;DHT22;58877;51.992;4.504;2023-03-16T14:51:51;16.66;37.86
71177;DHT22;58877;51.992;4.504;2023-03-16T14:54:20;16.58;37.27
71177;DHT22;58877;51.992;4.504;2023-03-16T14:56:58;16.51;37.65
71177;DHT22;58877;51.992;4.504;2023-03-16T14:59:24;16.95;37.78
71177;DHT22;58877;51.992;4.504;2023-03-16T15:01:51;17.44;36.62
71177;DHT22;58877;51.992;4.504;2023-03-16T15:04:29;17.74;35.46
71177;DHT22;58877;51.992;4.504;2023-03-16T15:06:57;17.67;35.15
71177;DHT22;58877;51.992;4.504;2023-03-16T15:09:35;18.25;35.55
71177;DHT22;58877;51.992;4.504;2023-03-16T15:12:31;18.63;33.53
71177;DHT22;58877;51.992;4.504;2023-03-16T15:15:14;19.61;32.25
71177;DHT22;58877;51.992;4.504;2023-03-16T15:17:41;18.80;34.82
71177;DHT22;58877;51.992;4.504;2023-03-16T15:20:12;17.93;34.26
71177;DHT22;58877;51.992;4.504;2023-03-16T15:22:39;18.38;34.50
71177;DHT22;58877;51.992;4.504;2023-03-16T15:28:08;19.70;31.79
71177;DHT22;58877;51.992;4.504;2023-03-16T15:30:38;18.88;32.68
71177;DHT22;58877;51.992;4.504;2023-03-16T15:33:03;17.70;34.57
71177;DHT22;58877;51.992;4.504;2023-03-16T15:35:33;17.15;35.83
71177;DHT22;58877;51.992;4.504;2023-03-16T15:38:05;16.59;35.89
71177;DHT22;58877;51.992;4.504;2023-03-16T15:40:34;16.55;37.12
71177;DHT22;58877;51.992;4.504;2023-03-16T15:43:01;16.52;37.33
71177;DHT22;58877;51.992;4.504;2023-03-16T15:45:27;16.66;37.62
71177;DHT22;58877;51.992;4.504;2023-03-16T15:47:55;16.59;37.40
71177;DHT22;58877;51.992;4.504;2023-03-16T15:50:25;16.59;37.64
71177;DHT22;58877;51.992;4.504;2023-03-16T15:52:58;16.62;36.85
71177;DHT22;58877;51.992;4.504;2023-03-16T15:58:02;16.31;38.91
71177;DHT22;58877;51.992;4.504;2023-03-16T16:00:36;16.22;39.77
71177;DHT22;58877;51.992;4.504;2023-03-16T16:03:04;16.35;39.25
71177;DHT22;58877;51.992;4.504;2023-03-16T16:05:31;16.55;38.20
71177;DHT22;58877;51.992;4.504;2023-03-16T16:07:58;16.86;37.52
71177;DHT22;58877;51.992;4.504;2023-03-16T16:10:25;17.43;36.45
71177;DHT22;58877;51.992;4.504;2023-03-16T16:12:55;17.77;35.56
71177;DHT22;58877;51.992;4.504;2023-03-16T16:15:27;17.71;35.65
71177;DHT22;58877;51.992;4.504;2023-03-16T16:17:55;17.32;36.41
71177;DHT22;58877;51.992;4.504;2023-03-16T16:20:25;16.99;36.94
71177;DHT22;58877;51.992;4.504;2023-03-16T16:22:53;16.61;37.15
71177;DHT22;58877;51.992;4.504;2023-03-16T16:25:22;16.38;37.16
71177;DHT22;58877;51.992;4.504;2023-03-16T16:27:49;16.55;37.40
71177;DHT22;58877;51.992;4.504;2023-03-16T16:30:22;16.79;37.36
71177;DHT22;58877;51.992;4.504;2023-03-16T16:32:49;16.82;37.39
71177;DHT22;58877;51.992;4.504;2023-03-16T16:35:18;16.47;37.47
71177;DHT22;58877;51.992;4.504;2023-03-16T16:37:45;16.31;38.00
71177;DHT22;58877;51.992;4.504;2023-03-16T16:40:21;16.22;38.24
71177;DHT22;58877;51.992;4.504;2023-03-16T16:42:51;16.14;38.14
71177;DHT22;58877;51.992;4.504;2023-03-16T16:45:21;16.13;38.61
71177;DHT22;58877;51.992;4.504;2023-03-16T16:47:49;16.34;39.17
71177;DHT22;58877;51.992;4.504;2023-03-16T16:50:26;16.47;38.32
71177;DHT22;58877;51.992;4.504;2023-03-16T16:52:53;16.44;38.29
71177;DHT22;58877;51.992;4.504;2023-03-16T16:55:22;15.86;39.33
71177;DHT22;58877;51.992;4.504;2023-03-16T16:57:52;15.39;40.72
71177;DHT22;58877;51.992;4.504;2023-03-16T17:00:24;15.10;41.12
71177;DHT22;58877;51.992;4.504;2023-03-16T17:02:53;14.98;41.65
71177;DHT22;58877;51.992;4.504;2023-03-16T17:05:24;14.81;42.06
71177;DHT22;58877;51.992;4.504;2023-03-16T17:08:23;14.68;42.29
71177;DHT22;58877;51.992;4.504;2023-03-16T17:10:53;14.65;42.95
71177;DHT22;58877;51.992;4.504;2023-03-16T17:13:34;14.60;43.06
71177;DHT22;58877;51.992;4.504;2023-03-16T17:16:04;14.46;43.39
71177;DHT22;58877;51.992;4.504;2023-03-16T17:18:33;14.38;43.31
71177;DHT22;58877;51.992;4.504;2023-03-16T17:20:59;14.35;43.55
71177;DHT22;58877;51.992;4.504;2023-03-16T17:24:01;14.24;43.66
71177;DHT22;58877;51.992;4.504;2023-03-16T17:26:31;14.21;43.97
71177;DHT22;58877;51.992;4.504;2023-03-16T17:29:09;14.20;44.14
71177;DHT22;58877;51.992;4.504;2023-03-16T17:31:40;13.97;44.86
71177;DHT22;58877;51.992;4.504;2023-03-16T17:34:20;13.91;44.80